createdAt,value
2019-05-30T00:00:31.626Z,90.90
2019-05-30T00:03:02.333Z,91.10
2019-05-30T00:05:31.658Z,91.40
2019-05-30T00:08:00.979Z,91.80
2019-05-30T00:10:30.222Z,92.10
2019-05-30T00:13:00.639Z,92.40
2019-05-30T00:15:30.040Z,92.60
2019-05-30T00:18:00.768Z,92.90
2019-05-30T00:20:30.251Z,93.10
2019-05-30T00:23:00.916Z,93.50
2019-05-30T00:25:30.373Z,94.00
2019-05-30T00:27:59.714Z,94.20
2019-05-30T00:30:29.027Z,94.50
2019-05-30T00:33:00.591Z,95.00
2019-05-30T00:35:30.712Z,95.40
2019-05-30T00:38:00.030Z,95.70
2019-05-30T00:40:29.292Z,96.10
2019-05-30T00:42:58.579Z,96.30
2019-05-30T00:45:28.012Z,97.00
2019-05-30T00:47:58.071Z,97.30
2019-05-30T00:50:27.670Z,98.10
2019-05-30T00:52:56.986Z,98.30
2019-05-30T00:55:26.403Z,98.70
2019-05-30T00:57:56.723Z,99.10
2019-05-30T01:00:43.016Z,99.50
2019-05-30T01:03:05.315Z,99.90
2019-05-30T01:05:38.779Z,99.90
2019-05-30T01:08:08.077Z,99.90
2019-05-30T01:10:37.441Z,99.90
2019-05-30T01:13:07.237Z,99.90
2019-05-30T01:15:36.820Z,99.90
2019-05-30T01:18:07.274Z,99.90
2019-05-30T01:20:38.823Z,99.90
2019-05-30T01:23:08.618Z,99.90
2019-05-30T01:25:37.870Z,99.90
2019-05-30T01:28:07.834Z,99.90
2019-05-30T01:30:37.427Z,99.90
2019-05-30T01:33:07.907Z,99.90
2019-05-30T01:35:37.347Z,99.90
2019-05-30T01:38:07.946Z,99.90
2019-05-30T01:40:37.549Z,99.90
2019-05-30T01:43:08.160Z,99.90
2019-05-30T01:45:37.598Z,99.90
2019-05-30T01:48:08.435Z,99.90
2019-05-30T01:50:37.972Z,99.90
2019-05-30T01:53:07.254Z,99.90
2019-05-30T01:55:36.605Z,99.90
2019-05-30T01:58:07.250Z,99.90
2019-05-30T02:00:39.069Z,99.90
2019-05-30T02:03:09.499Z,99.90
2019-05-30T02:05:41.628Z,99.90
2019-05-30T02:08:10.882Z,99.90
2019-05-30T02:10:40.435Z,99.90
2019-05-30T02:13:10.025Z,99.90
2019-05-30T02:15:39.530Z,99.90
2019-05-30T02:18:09.955Z,99.90
2019-05-30T02:20:39.555Z,99.90
2019-05-30T02:23:09.990Z,99.90
2019-05-30T02:25:39.900Z,99.90
2019-05-30T02:28:12.970Z,99.90
2019-05-30T02:30:42.583Z,99.90
2019-05-30T02:33:12.994Z,99.90
2019-05-30T02:35:42.571Z,99.90
2019-05-30T02:38:12.137Z,99.90
2019-05-30T02:40:41.584Z,99.90
2019-05-30T02:43:12.227Z,99.90
2019-05-30T02:45:42.246Z,99.90
2019-05-30T02:48:12.154Z,99.90
2019-05-30T02:50:43.701Z,99.90
2019-05-30T02:53:13.323Z,99.90
2019-05-30T02:55:44.153Z,99.90
2019-05-30T02:58:13.562Z,99.90
2019-05-30T03:00:42.787Z,99.90
2019-05-30T03:03:14.241Z,99.90
2019-05-30T03:05:43.149Z,99.90
2019-05-30T03:08:14.374Z,99.90
2019-05-30T03:10:44.205Z,99.90
2019-05-30T03:13:13.632Z,99.90
2019-05-30T03:15:43.026Z,99.90
2019-05-30T03:18:14.271Z,99.90
2019-05-30T03:20:44.850Z,99.90
2019-05-30T03:23:14.795Z,99.90
2019-05-30T03:25:44.472Z,99.90
2019-05-30T03:28:13.860Z,99.90
2019-05-30T03:30:45.241Z,99.90
2019-05-30T03:33:32.332Z,99.90
2019-05-30T03:35:45.956Z,99.90
2019-05-30T03:38:15.714Z,99.90
2019-05-30T03:40:45.162Z,99.90
2019-05-30T03:43:15.902Z,99.90
2019-05-30T03:46:08.260Z,99.90
2019-05-30T03:48:38.989Z,99.90
2019-05-30T03:51:11.252Z,99.90
2019-05-30T03:53:41.483Z,99.90
2019-05-30T03:56:15.902Z,99.90
2019-05-30T03:58:56.064Z,99.90
2019-05-30T04:04:35.387Z,99.90
2019-05-30T04:07:15.591Z,99.90
2019-05-30T04:09:46.554Z,99.90
2019-05-30T04:12:24.798Z,99.90
2019-05-30T04:14:57.855Z,99.90
2019-05-30T04:17:27.226Z,99.90
2019-05-30T04:19:56.623Z,99.90
2019-05-30T04:22:25.993Z,99.90
2019-05-30T04:24:55.293Z,99.90
2019-05-30T04:27:24.565Z,99.90
2019-05-30T04:29:53.837Z,99.90
2019-05-30T04:32:29.001Z,99.90
2019-05-30T04:34:58.273Z,99.90
2019-05-30T04:37:27.654Z,99.90
2019-05-30T04:39:56.904Z,99.90
2019-05-30T04:42:26.161Z,99.90
2019-05-30T04:44:55.559Z,99.90
2019-05-30T04:47:25.366Z,99.90
2019-05-30T04:49:54.901Z,99.90
2019-05-30T04:52:25.032Z,99.90
2019-05-30T04:54:54.551Z,99.90
2019-05-30T04:57:26.851Z,99.90
2019-05-30T04:59:54.800Z,99.90
2019-05-30T05:02:24.258Z,99.60
2019-05-30T05:04:53.506Z,95.40
2019-05-30T05:07:22.846Z,91.30
2019-05-30T05:09:52.305Z,86.70
2019-05-30T05:12:23.433Z,80.70
2019-05-30T05:14:52.926Z,78.40
2019-05-30T05:17:23.131Z,77.80
2019-05-30T05:19:53.737Z,74.60
2019-05-30T05:22:23.422Z,74.00
2019-05-30T05:24:52.765Z,73.20
2019-05-30T05:27:22.058Z,73.00
2019-05-30T05:29:51.365Z,71.20
2019-05-30T05:32:22.648Z,71.30
2019-05-30T05:34:52.266Z,70.90
2019-05-30T05:37:21.739Z,70.80
2019-05-30T05:39:51.021Z,70.60
2019-05-30T05:42:20.356Z,70.40
2019-05-30T05:44:49.587Z,69.80
2019-05-30T05:47:18.876Z,69.50
2019-05-30T05:49:48.244Z,69.80
2019-05-30T05:52:18.832Z,70.30
2019-05-30T05:54:48.536Z,69.60
2019-05-30T05:57:18.871Z,68.80
2019-05-30T05:59:53.066Z,68.70
2019-05-30T06:02:23.313Z,69.80
2019-05-30T06:04:52.826Z,68.80
2019-05-30T06:07:22.456Z,68.50
2019-05-30T06:09:51.949Z,68.70
2019-05-30T06:12:21.742Z,69.60
2019-05-30T06:14:51.371Z,67.80
2019-05-30T06:17:21.162Z,66.70
2019-05-30T06:19:50.603Z,65.90
2019-05-30T06:22:20.084Z,64.90
2019-05-30T06:24:49.449Z,64.30
2019-05-30T06:27:20.053Z,64.30
2019-05-30T06:29:49.401Z,64.40
2019-05-30T06:32:18.720Z,65.80
2019-05-30T06:34:48.095Z,66.20
2019-05-30T06:37:17.565Z,67.20
2019-05-30T06:39:46.840Z,68.90
2019-05-30T06:42:16.079Z,66.30
2019-05-30T06:44:45.531Z,64.50
2019-05-30T06:47:16.835Z,64.60
2019-05-30T06:49:45.832Z,63.60
2019-05-30T06:52:15.104Z,63.30
2019-05-30T06:54:44.431Z,63.80
2019-05-30T06:57:13.758Z,62.80
2019-05-30T06:59:43.042Z,63.90
2019-05-30T07:02:12.443Z,63.80
2019-05-30T07:04:51.726Z,62.50
2019-05-30T07:07:15.304Z,62.40
2019-05-30T07:09:44.753Z,62.10
2019-05-30T07:12:14.011Z,61.60
2019-05-30T07:14:43.262Z,61.30
2019-05-30T07:17:12.657Z,60.20
2019-05-30T07:19:41.980Z,61.00
2019-05-30T07:22:11.400Z,59.60
2019-05-30T07:24:42.314Z,59.40
2019-05-30T07:27:11.741Z,59.30
2019-05-30T07:29:40.995Z,58.60
2019-05-30T07:32:13.363Z,57.50
2019-05-30T07:34:41.312Z,57.00
2019-05-30T07:37:10.644Z,58.30
2019-05-30T07:39:40.048Z,55.00
2019-05-30T07:42:09.360Z,52.60
2019-05-30T07:44:39.507Z,51.30
2019-05-30T07:47:08.768Z,51.40
2019-05-30T07:49:38.714Z,51.20
2019-05-30T07:52:08.104Z,52.10
2019-05-30T07:54:37.394Z,52.40
2019-05-30T07:57:06.726Z,51.80
2019-05-30T07:59:36.128Z,52.00
2019-05-30T08:02:05.374Z,52.40
2019-05-30T08:04:35.656Z,55.10
2019-05-30T08:07:06.839Z,53.50
2019-05-30T08:09:36.233Z,55.00
2019-05-30T08:12:05.598Z,54.80
2019-05-30T08:14:35.325Z,54.20
2019-05-30T08:17:04.815Z,52.50
2019-05-30T08:19:34.373Z,53.60
2019-05-30T08:22:03.930Z,52.40
2019-05-30T08:24:34.410Z,53.30
2019-05-30T08:27:03.894Z,52.50
2019-05-30T08:29:34.283Z,53.00
2019-05-30T08:32:04.935Z,52.10
2019-05-30T08:34:34.631Z,53.20
2019-05-30T08:37:04.002Z,53.90
2019-05-30T08:39:33.333Z,54.20
2019-05-30T08:42:02.602Z,54.60
2019-05-30T08:44:31.906Z,53.70
2019-05-30T08:47:01.244Z,54.30
2019-05-30T08:49:31.813Z,54.10
2019-05-30T08:52:01.146Z,55.30
2019-05-30T08:54:30.401Z,55.00
2019-05-30T08:57:00.440Z,55.60
2019-05-30T08:59:30.312Z,55.80
2019-05-30T09:01:59.710Z,57.10
2019-05-30T09:04:29.078Z,56.40
2019-05-30T09:06:58.574Z,56.00
2019-05-30T09:09:27.966Z,57.10
2019-05-30T09:11:57.263Z,57.00
2019-05-30T09:14:26.570Z,57.70
2019-05-30T09:16:56.976Z,57.00
2019-05-30T09:19:26.458Z,58.20
2019-05-30T09:21:55.724Z,57.80
2019-05-30T09:24:25.089Z,58.10
2019-05-30T09:26:54.338Z,56.90
2019-05-30T09:29:23.621Z,58.10
2019-05-30T09:31:52.924Z,57.80
2019-05-30T09:34:22.184Z,57.40
2019-05-30T09:36:51.513Z,57.00
2019-05-30T09:39:20.836Z,56.90
2019-05-30T09:41:50.312Z,58.30
2019-05-30T09:44:19.739Z,57.20
2019-05-30T09:46:50.408Z,56.80
2019-05-30T09:49:21.764Z,57.50
2019-05-30T09:51:51.174Z,57.70
2019-05-30T09:54:20.677Z,56.90
2019-05-30T09:56:51.090Z,57.10
2019-05-30T09:59:20.611Z,57.20
2019-05-30T10:01:50.161Z,57.40
2019-05-30T10:04:19.495Z,57.00
2019-05-30T10:06:48.898Z,56.00
2019-05-30T10:09:18.203Z,54.70
2019-05-30T10:11:47.566Z,54.70
2019-05-30T10:14:16.977Z,54.70
2019-05-30T10:16:52.413Z,54.70
2019-05-30T10:19:17.231Z,55.20
2019-05-30T10:21:47.160Z,55.90
2019-05-30T10:24:16.680Z,56.70
2019-05-30T10:26:47.117Z,56.70
2019-05-30T10:29:16.680Z,56.80
2019-05-30T10:31:46.513Z,56.00
2019-05-30T10:34:16.026Z,55.20
2019-05-30T10:36:47.162Z,55.70
2019-05-30T10:39:16.211Z,55.40
2019-05-30T10:41:46.221Z,56.30
2019-05-30T10:44:16.750Z,57.30
2019-05-30T10:46:47.233Z,55.60
2019-05-30T10:49:31.308Z,55.20
2019-05-30T10:51:47.937Z,56.30
2019-05-30T10:54:17.202Z,56.80
2019-05-30T10:56:47.040Z,55.90
2019-05-30T10:59:17.342Z,56.20
2019-05-30T11:01:48.152Z,55.10
2019-05-30T11:04:17.560Z,55.40
2019-05-30T11:07:11.101Z,56.30
2019-05-30T11:09:38.222Z,56.80
2019-05-30T11:12:07.535Z,56.70
2019-05-30T11:14:36.910Z,56.20
2019-05-30T11:17:07.125Z,55.70
2019-05-30T11:19:36.429Z,54.80
2019-05-30T11:22:05.833Z,55.20
2019-05-30T11:24:35.226Z,54.20
2019-05-30T11:27:04.571Z,54.20
2019-05-30T11:29:35.112Z,54.40
2019-05-30T11:32:04.290Z,55.10
2019-05-30T11:34:33.607Z,55.70
2019-05-30T11:37:18.282Z,54.50
2019-05-30T11:39:33.916Z,55.20
2019-05-30T11:42:03.185Z,54.30
2019-05-30T11:44:32.462Z,54.40
2019-05-30T11:47:01.880Z,54.00
2019-05-30T11:49:31.149Z,55.00
2019-05-30T11:52:00.533Z,55.90
2019-05-30T11:54:29.769Z,56.00
2019-05-30T11:57:00.119Z,55.60
2019-05-30T11:59:29.762Z,56.00
2019-05-30T12:02:00.264Z,56.40
2019-05-30T12:04:29.946Z,55.00
2019-05-30T12:07:00.848Z,54.50
2019-05-30T12:09:30.285Z,55.10
2019-05-30T12:11:59.530Z,55.20
2019-05-30T12:14:28.954Z,54.00
2019-05-30T12:16:59.457Z,54.70
2019-05-30T12:19:28.886Z,55.00
2019-05-30T12:21:58.150Z,54.60
2019-05-30T12:24:27.424Z,54.80
2019-05-30T12:26:58.007Z,55.10
2019-05-30T12:29:27.382Z,54.00
2019-05-30T12:31:59.967Z,54.10
2019-05-30T12:34:27.578Z,54.70
2019-05-30T12:36:58.447Z,54.90
2019-05-30T12:39:28.159Z,54.60
2019-05-30T12:41:57.536Z,55.20
2019-05-30T12:44:26.849Z,54.00
2019-05-30T12:46:57.103Z,54.30
2019-05-30T12:49:26.482Z,54.40
2019-05-30T12:51:56.188Z,53.40
2019-05-30T12:54:25.550Z,54.00
2019-05-30T12:56:54.866Z,54.20
2019-05-30T12:59:24.198Z,54.80
2019-05-30T13:01:54.670Z,54.80
2019-05-30T13:04:24.345Z,54.30
2019-05-30T13:06:55.803Z,54.40
2019-05-30T13:09:24.884Z,54.80
2019-05-30T13:11:54.308Z,54.70
2019-05-30T13:14:23.680Z,54.20
2019-05-30T13:16:53.022Z,54.40
2019-05-30T13:19:22.326Z,54.20
2019-05-30T13:21:53.776Z,54.40
2019-05-30T13:24:22.730Z,54.50
2019-05-30T13:26:52.210Z,54.20
2019-05-30T13:29:21.545Z,54.10
2019-05-30T13:31:50.819Z,55.30
2019-05-30T13:34:20.083Z,54.60
2019-05-30T13:36:49.438Z,54.90
2019-05-30T13:39:18.734Z,54.40
2019-05-30T13:41:48.140Z,55.00
2019-05-30T13:44:17.549Z,54.30
2019-05-30T13:46:46.972Z,54.50
2019-05-30T13:49:16.685Z,54.10
2019-05-30T13:51:45.913Z,54.00
2019-05-30T13:54:15.301Z,54.20
2019-05-30T13:56:44.600Z,53.90
2019-05-30T13:59:14.172Z,54.10
2019-05-30T14:01:43.621Z,55.10
2019-05-30T14:04:13.000Z,54.90
2019-05-30T14:07:02.169Z,54.60
2019-05-30T14:09:29.506Z,54.70
2019-05-30T14:11:58.911Z,54.80
2019-05-30T14:14:28.242Z,54.80
2019-05-30T14:16:57.556Z,54.70
2019-05-30T14:19:26.874Z,54.20
2019-05-30T14:21:56.167Z,54.10
2019-05-30T14:24:25.587Z,53.90
2019-05-30T14:26:54.954Z,53.90
2019-05-30T14:29:24.272Z,53.70
2019-05-30T14:31:53.587Z,52.80
2019-05-30T14:34:22.857Z,53.90
2019-05-30T14:36:52.163Z,54.70
2019-05-30T14:39:21.516Z,54.50
2019-05-30T14:41:51.032Z,54.40
2019-05-30T14:44:21.179Z,53.40
2019-05-30T14:46:50.831Z,52.80
2019-05-30T14:49:20.269Z,52.50
2019-05-30T14:51:49.583Z,52.90
2019-05-30T14:54:20.967Z,53.10
2019-05-30T14:56:50.314Z,53.00
2019-05-30T14:59:19.690Z,53.20
2019-05-30T15:01:49.263Z,53.50
2019-05-30T15:04:19.633Z,53.00
2019-05-30T15:06:49.058Z,52.50
2019-05-30T15:09:26.185Z,52.50
2019-05-30T15:11:53.487Z,52.90
2019-05-30T15:14:22.960Z,53.20
2019-05-30T15:16:52.377Z,53.00
2019-05-30T15:19:21.818Z,53.10
2019-05-30T15:21:51.219Z,53.90
2019-05-30T15:24:25.012Z,54.00
2019-05-30T15:26:59.739Z,54.30
2019-05-30T15:29:29.271Z,54.60
2019-05-30T15:31:58.523Z,54.70
2019-05-30T15:34:27.850Z,55.00
2019-05-30T15:36:57.226Z,55.10
2019-05-30T15:39:32.812Z,55.10
2019-05-30T15:41:57.452Z,55.80
2019-05-30T15:44:26.730Z,55.80
2019-05-30T15:47:02.140Z,56.00
2019-05-30T15:49:31.741Z,56.30
2019-05-30T15:52:01.120Z,56.40
2019-05-30T15:54:31.113Z,56.50
2019-05-30T15:57:00.338Z,56.70
2019-05-30T15:59:29.736Z,57.10
2019-05-30T16:01:59.030Z,57.10
2019-05-30T16:04:28.338Z,57.60
2019-05-30T16:06:57.670Z,57.90
2019-05-30T16:09:27.350Z,58.10
2019-05-30T16:11:56.650Z,58.30
2019-05-30T16:14:25.927Z,57.90
2019-05-30T16:16:55.346Z,58.00
2019-05-30T16:19:26.390Z,58.20
2019-05-30T16:21:55.631Z,59.10
2019-05-30T16:24:24.871Z,59.30
2019-05-30T16:26:54.180Z,59.50
2019-05-30T16:29:23.499Z,60.00
2019-05-30T16:31:52.774Z,59.70
2019-05-30T16:34:22.280Z,59.50
2019-05-30T16:36:51.712Z,59.50
2019-05-30T16:39:22.493Z,60.20
2019-05-30T16:41:51.922Z,60.20
2019-05-30T16:44:22.471Z,60.40
2019-05-30T16:46:52.056Z,60.40
2019-05-30T16:49:22.838Z,60.60
2019-05-30T16:51:52.364Z,61.40
2019-05-30T16:54:21.648Z,61.40
2019-05-30T16:56:51.205Z,61.90
2019-05-30T16:59:20.856Z,61.70
2019-05-30T17:01:57.718Z,61.90
2019-05-30T17:04:21.225Z,61.80
2019-05-30T17:06:50.511Z,61.80
2019-05-30T17:09:19.890Z,62.40
2019-05-30T17:11:49.258Z,61.80
2019-05-30T17:14:19.738Z,63.50
2019-05-30T17:16:49.336Z,65.20
2019-05-30T17:19:18.689Z,66.70
2019-05-30T17:21:48.099Z,68.10
2019-05-30T17:24:18.817Z,69.50
2019-05-30T17:26:51.805Z,70.20
2019-05-30T17:29:19.531Z,71.10
2019-05-30T17:31:48.923Z,71.40
2019-05-30T17:34:20.061Z,72.30
2019-05-30T17:36:49.426Z,73.20
2019-05-30T17:39:20.422Z,73.80
2019-05-30T17:41:49.840Z,74.30
2019-05-30T17:44:19.205Z,75.00
2019-05-30T17:46:48.455Z,75.30
2019-05-30T17:49:17.779Z,75.80
2019-05-30T17:51:49.818Z,76.20
2019-05-30T17:54:18.080Z,76.20
2019-05-30T17:56:47.407Z,76.60
2019-05-30T17:59:16.670Z,76.20
2019-05-30T18:01:46.066Z,76.50
2019-05-30T18:04:15.294Z,76.90
2019-05-30T18:06:44.686Z,77.30
2019-05-30T18:09:13.942Z,77.80
2019-05-30T18:11:43.420Z,78.30
2019-05-30T18:14:12.689Z,78.40
2019-05-30T18:16:41.954Z,78.80
2019-05-30T18:19:11.842Z,79.30
2019-05-30T18:21:41.097Z,79.70
2019-05-30T18:24:10.584Z,80.00
2019-05-30T18:26:44.438Z,80.40
2019-05-30T18:29:13.757Z,80.80
2019-05-30T18:31:43.073Z,81.10
2019-05-30T18:34:12.378Z,81.80
2019-05-30T18:36:41.946Z,82.00
2019-05-30T18:39:11.411Z,82.30
2019-05-30T18:41:40.776Z,82.70
2019-05-30T18:44:10.107Z,83.10
2019-05-30T18:46:39.559Z,83.20
2019-05-30T18:49:08.878Z,83.60
2019-05-30T18:51:38.452Z,83.90
2019-05-30T18:54:07.703Z,84.10
2019-05-30T18:56:37.087Z,84.40
2019-05-30T18:59:06.354Z,84.70
2019-05-30T19:01:35.768Z,84.90
2019-05-30T19:04:05.877Z,85.10
2019-05-30T19:06:36.271Z,85.30
2019-05-30T19:09:07.580Z,85.80
2019-05-30T19:11:38.181Z,86.00
2019-05-30T19:14:07.764Z,86.20
2019-05-30T19:16:37.189Z,86.70
2019-05-30T19:19:06.549Z,87.00
2019-05-30T19:21:36.190Z,87.10
2019-05-30T19:24:05.882Z,87.50
2019-05-30T19:26:35.169Z,87.80
2019-05-30T19:29:04.530Z,88.50
2019-05-30T19:31:34.760Z,88.40
2019-05-30T19:34:04.254Z,88.70
2019-05-30T19:36:33.593Z,88.90
2019-05-30T19:39:03.050Z,89.20
2019-05-30T19:41:45.960Z,89.40
2019-05-30T19:44:03.522Z,89.60
2019-05-30T19:46:34.127Z,90.00
2019-05-30T19:49:04.534Z,90.10
2019-05-30T19:51:35.068Z,90.30
2019-05-30T19:54:04.961Z,90.60
2019-05-30T19:56:37.386Z,90.70
2019-05-30T19:59:06.586Z,91.00
2019-05-30T20:01:37.772Z,91.10
2019-05-30T20:04:08.053Z,91.30
2019-05-30T20:06:38.761Z,91.40
2019-05-30T20:09:09.773Z,91.70
2019-05-30T20:11:39.542Z,92.00
2019-05-30T20:14:09.707Z,92.20
2019-05-30T20:16:39.956Z,92.50
2019-05-30T20:19:10.316Z,92.60
2019-05-30T20:21:40.207Z,92.80
2019-05-30T20:24:10.208Z,93.10
2019-05-30T20:26:40.666Z,93.30
2019-05-30T20:29:10.869Z,93.60
2019-05-30T20:31:41.516Z,93.90
2019-05-30T20:34:12.985Z,94.20
2019-05-30T20:36:43.026Z,94.40
2019-05-30T20:39:12.951Z,94.70
2019-05-30T20:41:43.327Z,95.00
2019-05-30T20:44:12.635Z,95.40
2019-05-30T20:46:43.136Z,95.90
2019-05-30T20:49:12.549Z,96.30
2019-05-30T20:51:41.838Z,96.70
2019-05-30T20:54:11.163Z,97.20
2019-05-30T20:56:42.238Z,97.70
2019-05-30T20:59:11.718Z,98.10
2019-05-30T21:01:45.911Z,98.70
2019-05-30T21:04:12.062Z,99.30
2019-05-30T21:06:43.126Z,99.80
2019-05-30T21:09:27.925Z,99.90
2019-05-30T21:11:46.410Z,99.90
2019-05-30T21:14:17.890Z,99.90
2019-05-30T21:16:51.064Z,99.90
2019-05-30T21:19:20.537Z,99.90
2019-05-30T21:21:49.986Z,99.90
2019-05-30T21:24:19.340Z,99.90
2019-05-30T21:26:48.810Z,99.90
2019-05-30T21:29:18.233Z,99.90
2019-05-30T21:31:48.504Z,99.90
2019-05-30T21:34:18.454Z,99.90
2019-05-30T21:36:52.139Z,99.90
2019-05-30T21:39:21.413Z,99.90
2019-05-30T21:41:50.663Z,99.90
2019-05-30T21:44:20.217Z,99.90
2019-05-30T21:46:49.530Z,99.90
2019-05-30T21:49:20.854Z,99.90
2019-05-30T21:51:50.527Z,99.90
2019-05-30T21:54:19.845Z,99.90
2019-05-30T21:56:50.177Z,99.90
2019-05-30T21:59:19.570Z,99.90
2019-05-30T22:01:48.876Z,99.90
2019-05-30T22:04:18.209Z,99.90
2019-05-30T22:06:47.521Z,99.90
2019-05-30T22:09:16.871Z,99.90
2019-05-30T22:11:46.115Z,99.90
2019-05-30T22:14:15.494Z,99.90
2019-05-30T22:16:45.944Z,99.90
2019-05-30T22:19:15.371Z,99.90
2019-05-30T22:21:44.614Z,99.90
2019-05-30T22:24:13.958Z,99.90
2019-05-30T22:26:44.270Z,99.90
2019-05-30T22:29:13.742Z,99.90
2019-05-30T22:31:44.519Z,99.90
2019-05-30T22:34:13.879Z,99.90
2019-05-30T22:36:43.154Z,99.90
2019-05-30T22:39:12.763Z,99.90
2019-05-30T22:41:42.085Z,99.90
2019-05-30T22:44:11.447Z,99.90
2019-05-30T22:46:40.785Z,99.90
2019-05-30T22:49:10.808Z,99.90
2019-05-30T22:51:40.172Z,99.90
2019-05-30T22:54:09.583Z,99.90
2019-05-30T22:56:38.859Z,99.90
2019-05-30T22:59:08.233Z,99.90
2019-05-30T23:01:37.606Z,99.90
2019-05-30T23:04:07.139Z,99.90
2019-05-30T23:06:36.431Z,99.90
2019-05-30T23:09:08.564Z,99.90
2019-05-30T23:11:38.528Z,99.90
2019-05-30T23:14:07.863Z,99.90
2019-05-30T23:16:37.198Z,99.90
2019-05-30T23:19:06.471Z,99.90
2019-05-30T23:21:35.784Z,99.90
2019-05-30T23:24:05.126Z,99.90
2019-05-30T23:26:35.451Z,99.90
2019-05-30T23:29:04.754Z,99.90
2019-05-30T23:31:34.064Z,99.90
2019-05-30T23:34:03.420Z,99.90
2019-05-30T23:36:32.683Z,99.90
2019-05-30T23:39:02.984Z,99.90
2019-05-30T23:41:32.210Z,99.90
2019-05-30T23:44:10.618Z,99.90
2019-05-30T23:46:32.616Z,99.90
2019-05-30T23:49:01.934Z,99.90
2019-05-30T23:51:31.281Z,99.90
2019-05-30T23:54:00.632Z,99.90
2019-05-30T23:56:30.128Z,99.90
2019-05-30T23:58:59.416Z,99.90
